createdAt,value
2023-03-03T00:02:50.417Z,100.00
2023-03-03T00:05:55.021Z,100.00
2023-03-03T00:08:59.548Z,98.12
2023-03-03T00:12:21.426Z,95.12
2023-03-03T00:15:26.401Z,96.20
2023-03-03T00:18:35.450Z,95.67
2023-03-03T00:21:41.233Z,100.00
2023-03-03T00:24:45.794Z,100.00
2023-03-03T00:27:50.403Z,100.00
2023-03-03T00:30:57.432Z,95.48
2023-03-03T00:34:25.808Z,98.24
2023-03-03T00:37:35.390Z,100.00
2023-03-03T00:40:41.467Z,100.00
2023-03-03T00:43:45.932Z,100.00
2023-03-03T00:46:50.463Z,100.00
2023-03-03T00:50:18.159Z,100.00
2023-03-03T00:53:24.239Z,100.00
2023-03-03T00:56:28.898Z,100.00
2023-03-03T00:59:34.451Z,100.00
2023-03-03T01:02:39.086Z,100.00
2023-03-03T01:05:43.665Z,100.00
2023-03-03T01:08:48.210Z,100.00
2023-03-03T01:11:52.771Z,100.00
2023-03-03T01:14:57.497Z,100.00
2023-03-03T01:18:02.059Z,100.00
2023-03-03T01:21:06.754Z,100.00
2023-03-03T01:24:11.298Z,100.00
2023-03-03T01:27:15.869Z,100.00
2023-03-03T01:30:20.562Z,100.00
2023-03-03T01:33:25.088Z,100.00
2023-03-03T01:36:30.129Z,100.00
2023-03-03T01:39:34.599Z,100.00
2023-03-03T01:42:39.193Z,100.00
2023-03-03T01:45:47.219Z,100.00
2023-03-03T01:49:07.526Z,100.00
2023-03-03T01:52:20.301Z,100.00
2023-03-03T01:55:39.472Z,100.00
2023-03-03T01:58:49.310Z,100.00
2023-03-03T02:01:54.072Z,100.00
2023-03-03T02:05:00.690Z,100.00
2023-03-03T02:08:07.740Z,100.00
2023-03-03T02:11:14.143Z,100.00
2023-03-03T02:14:19.084Z,100.00
2023-03-03T02:17:23.703Z,100.00
2023-03-03T02:20:52.293Z,100.00
2023-03-03T02:24:13.112Z,100.00
2023-03-03T02:27:17.928Z,100.00
2023-03-03T02:30:24.052Z,100.00
2023-03-03T02:33:29.748Z,100.00
2023-03-03T02:36:37.504Z,100.00
2023-03-03T02:39:43.588Z,100.00
2023-03-03T02:42:52.684Z,100.00
2023-03-03T02:45:57.900Z,100.00
2023-03-03T02:49:05.406Z,100.00
2023-03-03T02:52:11.481Z,100.00
2023-03-03T02:55:18.679Z,100.00
2023-03-03T02:58:23.300Z,100.00
2023-03-03T03:01:29.591Z,100.00
2023-03-03T03:04:34.354Z,100.00
2023-03-03T03:07:39.224Z,100.00
2023-03-03T03:10:44.684Z,100.00
2023-03-03T03:13:49.418Z,100.00
2023-03-03T03:16:54.285Z,100.00
2023-03-03T03:19:58.922Z,100.00
2023-03-03T03:23:04.236Z,100.00
2023-03-03T03:26:09.550Z,100.00
2023-03-03T03:29:15.206Z,100.00
2023-03-03T03:32:19.884Z,100.00
2023-03-03T03:35:24.982Z,100.00
2023-03-03T03:38:32.549Z,100.00
2023-03-03T03:41:37.195Z,100.00
2023-03-03T03:44:42.246Z,100.00
2023-03-03T03:47:47.103Z,100.00
2023-03-03T03:50:53.092Z,100.00
2023-03-03T03:53:59.324Z,100.00
2023-03-03T03:57:04.286Z,100.00
2023-03-03T04:00:10.960Z,100.00
2023-03-03T04:03:18.572Z,100.00
2023-03-03T04:06:25.517Z,100.00
2023-03-03T04:09:30.885Z,100.00
2023-03-03T04:12:40.134Z,100.00
2023-03-03T04:15:49.695Z,100.00
2023-03-03T04:18:54.706Z,100.00
2023-03-03T04:21:59.791Z,100.00
2023-03-03T04:25:05.763Z,100.00
2023-03-03T04:28:16.503Z,100.00
2023-03-03T04:31:21.829Z,100.00
2023-03-03T04:34:26.444Z,100.00
2023-03-03T04:37:32.091Z,100.00
2023-03-03T04:40:36.771Z,100.00
2023-03-03T04:43:41.632Z,100.00
2023-03-03T04:46:47.218Z,100.00
2023-03-03T04:49:53.233Z,100.00
2023-03-03T04:52:58.480Z,100.00
2023-03-03T04:56:03.952Z,100.00
2023-03-03T04:59:08.674Z,100.00
2023-03-03T05:02:13.201Z,100.00
2023-03-03T05:05:17.759Z,100.00
2023-03-03T05:08:22.641Z,100.00
2023-03-03T05:11:27.136Z,100.00
2023-03-03T05:14:31.665Z,100.00
2023-03-03T05:17:36.928Z,100.00
2023-03-03T05:20:41.988Z,100.00
2023-03-03T05:23:46.619Z,100.00
2023-03-03T05:26:51.191Z,100.00
2023-03-03T05:29:55.968Z,100.00
2023-03-03T05:33:02.984Z,100.00
2023-03-03T05:36:07.941Z,100.00
2023-03-03T05:39:12.498Z,100.00
2023-03-03T05:42:17.039Z,100.00
2023-03-03T05:45:21.594Z,100.00
2023-03-03T05:48:26.576Z,100.00
2023-03-03T05:51:31.032Z,100.00
2023-03-03T05:54:36.555Z,100.00
2023-03-03T05:57:41.180Z,100.00
2023-03-03T06:00:45.769Z,100.00
2023-03-03T06:03:50.461Z,100.00
2023-03-03T06:06:54.978Z,100.00
2023-03-03T06:09:59.584Z,100.00
2023-03-03T06:13:04.655Z,100.00
2023-03-03T06:16:09.156Z,100.00
2023-03-03T06:19:14.058Z,100.00
2023-03-03T06:22:18.796Z,100.00
2023-03-03T06:25:23.382Z,100.00
2023-03-03T06:28:29.262Z,100.00
2023-03-03T06:31:33.903Z,100.00
2023-03-03T06:34:38.497Z,100.00
2023-03-03T06:37:43.043Z,100.00
2023-03-03T06:40:48.144Z,100.00
2023-03-03T06:43:53.577Z,100.00
2023-03-03T06:46:58.754Z,100.00
2023-03-03T06:50:03.387Z,100.00
2023-03-03T06:53:13.995Z,100.00
2023-03-03T06:56:18.640Z,100.00
2023-03-03T06:59:23.678Z,100.00
2023-03-03T07:02:28.176Z,100.00
2023-03-03T07:05:34.381Z,100.00
2023-03-03T07:08:39.933Z,100.00
2023-03-03T07:11:46.521Z,100.00
2023-03-03T07:15:17.520Z,100.00
2023-03-03T07:18:37.322Z,100.00
2023-03-03T07:21:41.855Z,100.00
2023-03-03T07:24:53.162Z,100.00
2023-03-03T07:28:16.084Z,100.00
2023-03-03T07:31:39.161Z,100.00
2023-03-03T07:34:47.825Z,100.00
2023-03-03T07:37:52.338Z,100.00
2023-03-03T07:40:59.627Z,100.00
2023-03-03T07:44:13.498Z,100.00
2023-03-03T07:47:24.277Z,100.00
2023-03-03T07:50:28.849Z,100.00
2023-03-03T07:53:37.967Z,100.00
2023-03-03T07:56:42.496Z,100.00
2023-03-03T07:59:52.602Z,100.00
2023-03-03T08:03:19.222Z,100.00
2023-03-03T08:06:35.986Z,100.00
2023-03-03T08:09:48.200Z,100.00
2023-03-03T08:12:54.281Z,100.00
2023-03-03T08:16:21.207Z,100.00
2023-03-03T08:19:26.225Z,100.00
2023-03-03T08:22:36.158Z,100.00
2023-03-03T08:25:42.338Z,100.00
2023-03-03T08:28:46.978Z,100.00
2023-03-03T08:31:51.532Z,100.00
2023-03-03T08:34:56.022Z,100.00
2023-03-03T08:38:01.048Z,100.00
2023-03-03T08:41:06.006Z,100.00
2023-03-03T08:44:11.281Z,100.00
2023-03-03T08:47:16.421Z,100.00
2023-03-03T08:50:21.163Z,100.00
2023-03-03T08:53:26.247Z,100.00
2023-03-03T08:56:30.839Z,100.00
2023-03-03T08:59:38.884Z,100.00
2023-03-03T09:02:43.573Z,100.00
2023-03-03T09:05:49.395Z,100.00
2023-03-03T09:08:54.925Z,100.00
2023-03-03T09:12:19.456Z,100.00
2023-03-03T09:15:33.108Z,100.00
2023-03-03T09:18:39.179Z,100.00
2023-03-03T09:21:43.633Z,100.00
2023-03-03T09:24:49.154Z,100.00
2023-03-03T09:27:55.254Z,100.00
2023-03-03T09:31:02.143Z,100.00
2023-03-03T09:34:24.514Z,100.00
2023-03-03T09:37:36.479Z,100.00
2023-03-03T09:40:47.120Z,100.00
2023-03-03T09:44:17.197Z,100.00
2023-03-03T09:47:23.199Z,100.00
2023-03-03T09:50:44.841Z,100.00
2023-03-03T09:54:11.022Z,100.00
2023-03-03T09:57:32.691Z,98.63
2023-03-03T10:01:12.682Z,88.61
2023-03-03T10:04:38.699Z,82.03
2023-03-03T10:07:55.255Z,83.12
2023-03-03T10:11:11.076Z,80.42
2023-03-03T10:14:36.797Z,75.00
2023-03-03T10:17:58.988Z,74.17
2023-03-03T10:21:23.595Z,70.21
2023-03-03T10:24:31.766Z,74.46
2023-03-03T10:28:13.394Z,73.26
2023-03-03T10:31:39.225Z,83.55
2023-03-03T10:35:24.762Z,74.92
2023-03-03T10:38:31.202Z,75.30
2023-03-03T10:42:05.358Z,73.05
2023-03-03T10:45:41.167Z,69.39
2023-03-03T10:48:57.806Z,68.10
2023-03-03T10:52:31.588Z,67.79
2023-03-03T10:55:41.951Z,67.85
2023-03-03T10:59:02.554Z,65.10
2023-03-03T11:02:22.382Z,67.93
2023-03-03T11:05:39.036Z,64.06
2023-03-03T11:08:52.764Z,62.26
2023-03-03T11:12:22.475Z,58.97
2023-03-03T11:15:56.340Z,58.03
2023-03-03T11:19:28.235Z,60.36
2023-03-03T11:22:42.655Z,60.08
2023-03-03T11:26:12.141Z,60.37
2023-03-03T11:29:32.307Z,57.51
2023-03-03T11:32:57.191Z,55.73
2023-03-03T11:36:19.063Z,53.60
2023-03-03T11:39:27.546Z,55.91
2023-03-03T11:42:54.840Z,54.14
2023-03-03T11:46:26.280Z,53.65
2023-03-03T11:49:43.406Z,50.96
2023-03-03T11:53:22.123Z,53.10
2023-03-03T11:56:41.170Z,49.50
2023-03-03T11:59:47.220Z,51.22
2023-03-03T12:03:10.617Z,50.90
2023-03-03T12:06:46.274Z,50.88
2023-03-03T12:10:12.663Z,47.74
2023-03-03T12:13:42.204Z,46.25
2023-03-03T12:16:55.347Z,45.92
2023-03-03T12:20:23.235Z,46.95
2023-03-03T12:23:44.981Z,47.06
2023-03-03T12:27:00.085Z,47.14
2023-03-03T12:30:25.891Z,45.52
2023-03-03T12:33:45.716Z,45.89
2023-03-03T12:37:18.972Z,44.29
2023-03-03T12:40:35.033Z,44.84
2023-03-03T12:43:57.551Z,47.73
2023-03-03T12:47:11.177Z,46.99
2023-03-03T12:50:45.029Z,45.74
2023-03-03T12:53:55.392Z,49.06
2023-03-03T12:57:21.564Z,46.07
2023-03-03T13:00:26.071Z,44.43
2023-03-03T13:03:56.603Z,45.71
2023-03-03T13:07:02.188Z,45.65
2023-03-03T13:10:23.888Z,43.64
2023-03-03T13:13:44.210Z,45.57
2023-03-03T13:17:08.908Z,43.67
2023-03-03T13:20:27.593Z,43.96
2023-03-03T13:23:39.413Z,43.08
2023-03-03T13:26:54.761Z,42.07
2023-03-03T13:30:03.586Z,41.45
2023-03-03T13:33:14.589Z,41.91
2023-03-03T13:36:24.564Z,43.01
2023-03-03T13:39:52.447Z,42.28
2023-03-03T13:43:02.723Z,42.01
2023-03-03T13:46:40.153Z,40.50
2023-03-03T13:50:15.147Z,40.52
2023-03-03T13:53:39.582Z,40.71
2023-03-03T13:56:52.906Z,39.21
2023-03-03T14:00:25.591Z,41.77
2023-03-03T14:03:55.830Z,39.41
2023-03-03T14:07:17.132Z,41.20
2023-03-03T14:10:26.483Z,42.77
2023-03-03T14:13:49.230Z,41.40
2023-03-03T14:17:14.395Z,40.72
2023-03-03T14:20:24.831Z,40.86
2023-03-03T14:23:50.010Z,40.11
2023-03-03T14:26:57.538Z,39.78
2023-03-03T14:30:29.000Z,40.51
2023-03-03T14:33:34.477Z,41.81
2023-03-03T14:36:41.831Z,41.49
2023-03-03T14:40:09.996Z,41.59
2023-03-03T14:43:35.808Z,41.21
2023-03-03T14:46:41.644Z,40.70
2023-03-03T14:49:46.503Z,40.70
2023-03-03T14:53:07.355Z,39.28
2023-03-03T14:56:30.179Z,39.24
2023-03-03T14:59:34.718Z,42.06
2023-03-03T15:02:58.481Z,40.55
2023-03-03T15:06:12.103Z,43.67
2023-03-03T15:09:33.817Z,42.55
2023-03-03T15:12:41.182Z,46.32
2023-03-03T15:15:52.670Z,44.47
2023-03-03T15:19:19.804Z,44.00
2023-03-03T15:23:00.885Z,44.44
2023-03-03T15:26:29.726Z,46.05
2023-03-03T15:29:52.864Z,44.21
2023-03-03T15:33:39.264Z,43.79
2023-03-03T15:37:08.832Z,44.19
2023-03-03T15:40:27.786Z,44.52
2023-03-03T15:43:56.059Z,45.69
2023-03-03T15:47:17.668Z,46.91
2023-03-03T15:50:30.843Z,45.46
2023-03-03T15:53:54.012Z,46.09
2023-03-03T15:57:02.842Z,48.00
2023-03-03T16:00:23.110Z,49.00
2023-03-03T16:03:46.471Z,50.87
2023-03-03T16:07:25.863Z,50.79
2023-03-03T16:11:01.246Z,50.88
2023-03-03T16:14:24.435Z,50.99
2023-03-03T16:17:30.279Z,54.03
2023-03-03T16:20:45.305Z,53.95
2023-03-03T16:23:52.036Z,54.27
2023-03-03T16:27:16.404Z,54.10
2023-03-03T16:30:34.596Z,54.76
2023-03-03T16:34:19.530Z,53.69
2023-03-03T16:37:39.741Z,53.75
2023-03-03T16:40:58.318Z,54.33
2023-03-03T16:44:21.084Z,55.77
2023-03-03T16:47:34.587Z,56.19
2023-03-03T16:50:54.082Z,56.81
2023-03-03T16:54:17.086Z,56.87
2023-03-03T16:57:45.742Z,57.96
2023-03-03T17:00:51.660Z,59.40
2023-03-03T17:04:02.261Z,60.24
2023-03-03T17:07:22.269Z,60.34
2023-03-03T17:10:31.996Z,62.54
2023-03-03T17:13:45.213Z,70.16
2023-03-03T17:17:08.335Z,72.30
2023-03-03T17:20:23.717Z,76.04
2023-03-03T17:23:53.100Z,75.98
2023-03-03T17:26:59.270Z,78.52
2023-03-03T17:30:29.122Z,83.08
2023-03-03T17:33:55.511Z,81.16
2023-03-03T17:37:30.324Z,83.46
2023-03-03T17:40:42.623Z,83.84
2023-03-03T17:44:09.218Z,87.25
2023-03-03T17:47:27.224Z,85.41
2023-03-03T17:50:58.934Z,88.56
2023-03-03T17:54:51.475Z,93.61
2023-03-03T17:58:34.421Z,92.18
2023-03-03T18:02:01.286Z,93.88
2023-03-03T18:05:43.178Z,93.64
2023-03-03T18:09:14.281Z,94.91
2023-03-03T18:12:46.131Z,95.08
2023-03-03T18:16:11.638Z,99.77
2023-03-03T18:19:34.566Z,100.00
2023-03-03T18:22:47.418Z,100.00
2023-03-03T18:25:58.105Z,100.00
2023-03-03T18:29:04.220Z,100.00
2023-03-03T18:32:21.574Z,100.00
2023-03-03T18:35:29.132Z,100.00
2023-03-03T18:38:38.259Z,100.00
2023-03-03T18:42:15.254Z,100.00
2023-03-03T18:45:19.943Z,100.00
2023-03-03T18:48:49.126Z,100.00
2023-03-03T18:52:16.207Z,100.00
2023-03-03T18:55:24.738Z,100.00
2023-03-03T18:58:35.871Z,100.00
2023-03-03T19:01:44.392Z,100.00
2023-03-03T19:04:55.682Z,100.00
2023-03-03T19:08:04.497Z,100.00
2023-03-03T19:11:48.276Z,100.00
2023-03-03T19:14:54.272Z,100.00
2023-03-03T19:18:01.337Z,100.00
2023-03-03T19:21:26.179Z,100.00
2023-03-03T19:24:36.381Z,100.00
2023-03-03T19:27:52.780Z,100.00
2023-03-03T19:31:21.557Z,100.00
2023-03-03T19:34:29.054Z,100.00
2023-03-03T19:37:54.769Z,100.00
2023-03-03T19:41:11.118Z,100.00
2023-03-03T19:44:47.287Z,100.00
2023-03-03T19:48:02.944Z,100.00
2023-03-03T19:51:10.152Z,100.00
2023-03-03T19:54:44.833Z,100.00
2023-03-03T19:58:01.283Z,100.00
2023-03-03T20:01:16.530Z,100.00
2023-03-03T20:04:58.422Z,100.00
2023-03-03T20:08:37.681Z,100.00
2023-03-03T20:12:07.170Z,100.00
2023-03-03T20:15:18.823Z,100.00
2023-03-03T20:18:53.444Z,100.00
2023-03-03T20:22:08.802Z,100.00
2023-03-03T20:25:14.542Z,100.00
2023-03-03T20:28:44.210Z,100.00
2023-03-03T20:32:21.489Z,100.00
2023-03-03T20:35:47.470Z,100.00
2023-03-03T20:39:07.448Z,100.00
2023-03-03T20:42:26.392Z,100.00
2023-03-03T20:45:43.220Z,100.00
2023-03-03T20:49:06.800Z,100.00
2023-03-03T20:52:22.594Z,100.00
2023-03-03T20:55:42.571Z,100.00
2023-03-03T20:59:09.461Z,100.00
2023-03-03T21:02:19.577Z,100.00
2023-03-03T21:05:24.184Z,100.00
2023-03-03T21:08:30.255Z,100.00
2023-03-03T21:11:37.717Z,100.00
2023-03-03T21:14:42.211Z,100.00
2023-03-03T21:17:46.754Z,100.00
2023-03-03T21:20:51.389Z,100.00
2023-03-03T21:23:56.682Z,100.00
2023-03-03T21:27:02.186Z,100.00
2023-03-03T21:30:15.851Z,100.00
2023-03-03T21:33:22.252Z,100.00
2023-03-03T21:36:32.624Z,100.00
2023-03-03T21:39:42.073Z,100.00
2023-03-03T21:42:46.956Z,100.00
2023-03-03T21:45:51.502Z,100.00
2023-03-03T21:48:56.082Z,100.00
2023-03-03T21:52:01.165Z,100.00
2023-03-03T21:55:06.524Z,100.00
2023-03-03T21:58:11.032Z,100.00
2023-03-03T22:01:15.619Z,100.00
2023-03-03T22:04:20.221Z,100.00
2023-03-03T22:07:24.842Z,100.00
2023-03-03T22:10:29.425Z,100.00
2023-03-03T22:13:34.320Z,100.00
2023-03-03T22:16:39.219Z,100.00
2023-03-03T22:19:43.763Z,100.00
2023-03-03T22:22:48.296Z,100.00
2023-03-03T22:25:54.442Z,100.00
2023-03-03T22:28:59.005Z,100.00
2023-03-03T22:32:03.605Z,100.00
2023-03-03T22:35:09.036Z,100.00
2023-03-03T22:38:16.162Z,100.00
2023-03-03T22:41:20.824Z,100.00
2023-03-03T22:44:25.463Z,100.00
2023-03-03T22:47:29.930Z,100.00
2023-03-03T22:50:39.398Z,100.00
2023-03-03T22:53:43.877Z,100.00
2023-03-03T22:56:48.445Z,100.00
2023-03-03T22:59:52.974Z,100.00
2023-03-03T23:02:57.882Z,100.00
2023-03-03T23:06:02.450Z,100.00
2023-03-03T23:09:07.736Z,100.00
2023-03-03T23:12:12.281Z,100.00
2023-03-03T23:15:16.970Z,100.00
2023-03-03T23:18:21.485Z,100.00
2023-03-03T23:21:26.043Z,100.00
2023-03-03T23:24:30.639Z,100.00
2023-03-03T23:27:35.143Z,100.00
2023-03-03T23:30:39.702Z,100.00
2023-03-03T23:33:44.400Z,100.00
2023-03-03T23:36:50.232Z,100.00
2023-03-03T23:39:54.787Z,100.00
2023-03-03T23:42:59.318Z,100.00
2023-03-03T23:46:04.282Z,100.00
2023-03-03T23:49:10.186Z,100.00
2023-03-03T23:52:14.785Z,100.00
2023-03-03T23:55:19.242Z,100.00
2023-03-03T23:58:23.757Z,100.00
